地図

経路データ

SID SEASON NUMBER BASIN SUBBASIN NAME ISO_TIME NATURE LAT LON WMO_WIND WMO_PRES WMO_AGENCY TRACK_TYPE DIST2LAND LANDFALL IFLAG USA_AGENCY USA_ATCF_ID USA_LAT USA_LON USA_RECORD USA_STATUS USA_WIND USA_PRES USA_SSHS USA_R34_NE USA_R34_SE USA_R34_SW USA_R34_NW USA_R50_NE USA_R50_SE USA_R50_SW USA_R50_NW USA_R64_NE USA_R64_SE USA_R64_SW USA_R64_NW USA_POCI USA_ROCI USA_RMW USA_EYE TOKYO_LAT TOKYO_LON TOKYO_GRADE TOKYO_WIND TOKYO_PRES TOKYO_R50_DIR TOKYO_R50_LONG TOKYO_R50_SHORT TOKYO_R30_DIR TOKYO_R30_LONG TOKYO_R30_SHORT TOKYO_LAND CMA_LAT CMA_LON CMA_CAT CMA_WIND CMA_PRES HKO_LAT HKO_LON HKO_CAT HKO_WIND HKO_PRES NEWDELHI_LAT NEWDELHI_LON NEWDELHI_GRADE NEWDELHI_WIND NEWDELHI_PRES NEWDELHI_CI NEWDELHI_DP NEWDELHI_POCI REUNION_LAT REUNION_LON REUNION_TYPE REUNION_WIND REUNION_PRES REUNION_TNUM REUNION_CI REUNION_RMW REUNION_R34_NE REUNION_R34_SE REUNION_R34_SW REUNION_R34_NW REUNION_R50_NE REUNION_R50_SE REUNION_R50_SW REUNION_R50_NW REUNION_R64_NE REUNION_R64_SE REUNION_R64_SW REUNION_R64_NW BOM_LAT BOM_LON BOM_TYPE BOM_WIND BOM_PRES BOM_TNUM BOM_CI BOM_RMW BOM_R34_NE BOM_R34_SE BOM_R34_SW BOM_R34_NW BOM_R50_NE BOM_R50_SE BOM_R50_SW BOM_R50_NW BOM_R64_NE BOM_R64_SE BOM_R64_SW BOM_R64_NW BOM_ROCI BOM_POCI BOM_EYE BOM_POS_METHOD BOM_PRES_METHOD NADI_LAT NADI_LON NADI_CAT NADI_WIND NADI_PRES WELLINGTON_LAT WELLINGTON_LON WELLINGTON_WIND WELLINGTON_PRES DS824_LAT DS824_LON DS824_STAGE DS824_WIND DS824_PRES TD9636_LAT TD9636_LON TD9636_STAGE TD9636_WIND TD9636_PRES TD9635_LAT TD9635_LON TD9635_WIND TD9635_PRES TD9635_ROCI NEUMANN_LAT NEUMANN_LON NEUMANN_CLASS NEUMANN_WIND NEUMANN_PRES MLC_LAT MLC_LON MLC_CLASS MLC_WIND MLC_PRES USA_GUST BOM_GUST BOM_GUST_PER REUNION_GUST REUNION_GUST_PER USA_SEAHGT USA_SEARAD_NE USA_SEARAD_SE USA_SEARAD_SW USA_SEARAD_NW STORM_SPEED STORM_DIR
1928110S18153 1928 27 SP EA NOT_NAMED 1928-04-18 23:00:00 NR -17.6000 153.000 main 535 519 __________O___ -1 -17.6000 153.000 7 5 224
1928110S18153 1928 27 SP EA NOT_NAMED 1928-04-19 00:00:00 TS -17.6638 152.938 main 519 492 _________OP___ -1 -17.6000 152.900 TC -17.6956 152.957 7 6 203
1928110S18153 1928 27 SP EA NOT_NAMED 1928-04-19 03:00:00 TS -17.9709 152.836 main 492 475 _________PP___ -1 -17.9506 152.843 TC -17.9843 152.832 7 7 196
1928110S18153 1928 27 SP EA NOT_NAMED 1928-04-19 06:00:00 TS -18.2863 152.750 main 466 450 _________PP___ -1 -18.2953 152.789 TC -18.2796 152.721 7 7 193
1928110S18153 1928 27 SP EA NOT_NAMED 1928-04-19 09:00:00 TS -18.6072 152.688 main 450 440 _________PP___ -1 -18.6279 152.740 TC -18.5865 152.636 7 7 189
1928110S18153 1928 27 SP EA NOT_NAMED 1928-04-19 11:00:00 TS -18.8200 152.656 main 440 426 _________PO___ -1 -18.8400 152.713 TC -18.8000 152.600 7 6 187
1928110S18153 1928 27 SP EA NOT_NAMED 1928-04-19 12:00:00 TS -18.9262 152.645 main 426 408 _________PP___ -1 -18.9425 152.701 TC -18.9098 152.589 7 6 183
1928110S18153 1928 27 SP EA NOT_NAMED 1928-04-19 15:00:00 TS -19.2382 152.628 main 408 379 _________PP___ -1 -19.2330 152.674 TC -19.2434 152.583 7 6 182
1928110S18153 1928 27 SP EA NOT_NAMED 1928-04-19 18:00:00 TS -19.5286 152.636 main 379 357 _________PP___ -1 -19.4935 152.663 TC -19.5637 152.609 7 5 175
1928110S18153 1928 27 SP EA NOT_NAMED 1928-04-19 21:00:00 TS -19.7817 152.665 main 357 348 _________PP___ -1 -19.7178 152.671 TC -19.8457 152.659 7 5 172
1928110S18153 1928 27 SP EA NOT_NAMED 1928-04-19 23:00:00 TS -19.9222 152.694 main 348 339 _________PO___ -1 -19.8443 152.688 TC -20.0000 152.700 7 4 169
1928110S18153 1928 27 SP EA NOT_NAMED 1928-04-20 00:00:00 TS -19.9801 152.708 main 339 330 _________OP___ -1 -19.9000 152.700 TC -20.0601 152.716 7 3 161
1928110S18153 1928 27 SP EA NOT_NAMED 1928-04-20 03:00:00 TS -20.1166 152.763 main 336 328 _________PP___ -1 -20.0366 152.753 TC -20.1965 152.773 7 3 152
1928110S18153 1928 27 SP EA NOT_NAMED 1928-04-20 06:00:00 TS -20.2102 152.837 main 328 327 _________PP___ -1 -20.1341 152.828 TC -20.2862 152.846 7 2 136
1928110S18153 1928 27 SP EA NOT_NAMED 1928-04-20 09:00:00 TS -20.2779 152.927 main 327 327 _________PP___ -1 -20.2015 152.920 TC -20.3543 152.933 7 2 126
1928110S18153 1928 27 SP EA NOT_NAMED 1928-04-20 11:00:00 TS -20.3170 152.994 main 334 334 _________PO___ -1 -20.2340 152.989 TC -20.4000 153.000 7 2 122
1928110S18153 1928 27 SP EA NOT_NAMED 1928-04-20 12:00:00 TS -20.3411 153.030 main 334 326 _________PP___ -1 -20.2476 153.025 TC -20.4346 153.035 7 3 123
1928110S18153 1928 27 SP EA NOT_NAMED 1928-04-20 15:00:00 TS -20.4102 153.145 main 334 334 _________PP___ -1 -20.2816 153.140 TC -20.5388 153.151 7 3 121
1928110S18153 1928 27 SP EA NOT_NAMED 1928-04-20 18:00:00 TS -20.4768 153.269 main 341 341 _________PP___ -1 -20.3123 153.260 TC -20.6413 153.278 7 3 120
1928110S18153 1928 27 SP EA NOT_NAMED 1928-04-20 21:00:00 TS -20.5439 153.396 main 349 342 _________PP___ -1 -20.3488 153.381 TC -20.7390 153.411 7 3 120
1928110S18153 1928 27 SP EA NOT_NAMED 1928-04-20 23:00:00 TS -20.5904 153.480 main 350 350 _________PO___ -1 -20.3807 153.461 TC -20.8000 153.500 7 3 121
1928110S18153 1928 27 SP EA NOT_NAMED 1928-04-21 00:00:00 TS -20.6148 153.521 main 350 350 _________OP___ -1 -20.4000 153.500 TC 25 1002 -20.8296 153.543 7 3 124
1928110S18153 1928 27 SP EA NOT_NAMED 1928-04-21 03:00:00 TS -20.6932 153.643 main 352 352 _________PP___ -1 -20.4730 153.613 TC -20.9133 153.672 7 3 126
1928110S18153 1928 27 SP EA NOT_NAMED 1928-04-21 06:00:00 TS -20.7782 153.761 main 363 363 _________PP___ -1 -20.5668 153.721 TC -20.9896 153.800 7 3 129
1928110S18153 1928 27 SP EA NOT_NAMED 1928-04-21 09:00:00 TS -20.8684 153.874 main 366 366 _________PP___ -1 -20.6785 153.825 TC -21.0583 153.922 7 3 131
1928110S18153 1928 27 SP EA NOT_NAMED 1928-04-21 11:00:00 TS -20.9307 153.946 main 366 366 _________PO___ -1 -20.7614 153.891 TC -21.1000 154.000 7 3 134
1928110S18153 1928 27 SP EA NOT_NAMED 1928-04-21 12:00:00 TS -20.9600 153.979 main 370 370 _________PP___ -1 -20.8050 153.924 TC -21.1151 154.033 7 3 134
1928110S18153 1928 27 SP EA NOT_NAMED 1928-04-21 15:00:00 TS -21.0481 154.073 main 379 374 _________PP___ -1 -20.9434 154.021 TC -21.1527 154.125 7 3 136
1928110S18153 1928 27 SP EA NOT_NAMED 1928-04-21 18:00:00 TS -21.1410 154.166 main 384 379 _________PP___ -1 -21.0907 154.115 TC -21.1913 154.216 7 3 137
1928110S18153 1928 27 SP EA NOT_NAMED 1928-04-21 21:00:00 TS -21.2453 154.271 main 389 385 _________PP___ -1 -21.2439 154.208 TC -21.2464 154.319 7 3 134
1928110S18153 1928 27 SP EA NOT_NAMED 1928-04-21 23:00:00 TS -21.3159 154.356 main 394 394 _________PO___ -1 -21.3478 154.269 TC -21.3000 154.400 7 3 125
1928110S18153 1928 27 SP EA NOT_NAMED 1928-04-22 00:00:00 TS -21.3473 154.423 main 394 391 _________OP___ -1 -21.4000 154.300 TC -21.3342 154.453 7 4 119
1928110S18153 1928 27 SP EA NOT_NAMED 1928-04-22 03:00:00 NR -21.4577 154.631 main 392 389 __________P___ -1 TC -21.4577 154.631 7 5 125
1928110S18153 1928 27 SP EA NOT_NAMED 1928-04-22 06:00:00 NR -21.6078 154.820 main 389 377 __________P___ -1 TC -21.6078 154.820 7 5 133
1928110S18153 1928 27 SP EA NOT_NAMED 1928-04-22 09:00:00 NR -21.7782 154.998 main 377 372 __________P___ -1 TC -21.7782 154.998 7 5 138
1928110S18153 1928 27 SP EA NOT_NAMED 1928-04-22 11:00:00 NR -21.9000 155.100 main 372 362 __________O___ -1 TC -21.9000 155.100 7 5 143
1928110S18153 1928 27 SP EA NOT_NAMED 1928-04-22 12:00:00 NR -21.9627 155.144 main 362 358 __________P___ -1 TC -21.9627 155.144 7 4 152
1928110S18153 1928 27 SP EA NOT_NAMED 1928-04-22 15:00:00 NR -22.1567 155.247 main 349 345 __________P___ -1 TC -22.1567 155.247 7 4 158
1928110S18153 1928 27 SP EA NOT_NAMED 1928-04-22 18:00:00 NR -22.3574 155.319 main 336 325 __________P___ -1 TC -22.3573 155.319 7 4 165
1928110S18153 1928 27 SP EA NOT_NAMED 1928-04-22 21:00:00 NR -22.5623 155.371 main 325 317 __________P___ -1 TC -22.5623 155.371 7 4 167
1928110S18153 1928 27 SP EA NOT_NAMED 1928-04-22 23:00:00 NR -22.7000 155.400 main 317 __________O___ -1 TC -22.7000 155.400 7 4 0

デジタル台風データ・検索

IBTrACS Databaseについて

本データベースは、米国NOAAが公開する1842年以降の世界の熱帯低気圧のベストトラックデータアーカイブInternational Best Track Archive for Climate Stewardship (IBTrACS)を、ウェブで閲覧しやすい形式に変換したものです。

最終更新日:2021-12-01